Pagrindinis puslapis
METAR-TAF:

METAR-TAF

Oro uostai :

Olbija, Italija

platuma: 40-54N, ilguma: 009-31E, Aukštis: 11 m

Dabartinis oras

Ataskaita buvo paskelbta 21 minutes, ne 18:20 UTC
Vėjas 2 kt nuo kintamojo kryptimis
Temperatūra 25°C
Drėgmė 69%
Slėgis 1016 hPa
Matomumas 10 km arba daugiau
nėra debesų žemiau 1500 m ir nėra kamuolinių lietaus debesų

METAR: LIEO 191820Z VRB02KT CAVOK 25/19 Q1016

Laikas: 20:41 (18:41 UTC)

Prognozė

Ataskaita buvo paskelbta 1 valandą ir 41 minutes, ne 17:00 UTC
Prognozė galioja nuo 19 metu 18 UTC su 20 metu 18 UTC
Vėjas 10 kt iš Šiaurės Rytų
Matomumas 10 km arba daugiau
nėra debesų žemiau 1500 m ir nėra kamuolinių lietaus debesų
Tapsmas
nuo 19 metu 18 UTC su 19 metu 20 UTC
Vėjas 5 kt nuo kintamojo kryptimis
Tapsmas
nuo 20 metu 10 UTC su 20 metu 12 UTC
Vėjas 10 kt iš Šiaurės Rytų

TAF: LIEO 191700Z 1918/2018 05010KT CAVOK BECMG 1918/1920 VRB05KT BECMG 2010/2012 05010KT

Orai ataskaitas ir orų prognozės (METAR, TAF).

turimą stotys yra geltonos ir raudonos taškus žemėlapyje.

Perkelti pele per norėdami pamatyti stoties vardą.

Tada spustelėkite, norėdami matyti oro stebėjimo ir prognozės.

Norėdami pakeisti žemėlapį: spustelėkite ant žalios mygtukų su juodo kryžiaus žemyn,; žalią mygtuką su brūkšneliu, jei norite nutolinti; arba žalių rodyklių gretimoms žemėlapius.


METAR-TAF: